Fort Walton Beach, FL

9:42 AM CST on January 18, 2017 (GMT -0600)
Choctawhatchee High School WeatherSTEM | | Change Station
Active Advisory: Marine Fog Advisory

Elev 52 ft 30.45 °N, 86.62 °W | Updated 9 minutes ago

Overcast
Overcast
66.7 °F
Feels Like 66.7 °F
N
0.0
Wind Variable Wind from East

Today
High -- | Low -- °F
--% Chance of Precip.
Yesterday
High -- | Low -- °F
Precip. -- in
Pressure 30.19 in
Visibility 1.0 miles
Clouds Overcast 200 ft
Dew Point 66 °F
Humidity 98%
Rainfall 0.00 in
Snow Depth Not available.
6:43 AM 5:11 PM
Waning Gibbous, 62% visible
SPECI KHRT 181513Z 00000KT 1SM BR OVC002 19/17 A3019 RMK $
Pressure 30.19 in
Visibility 1.0 miles
Clouds Overcast 200 ft
Dew Point 66 °F
Humidity 98%
Rainfall 0.00 in
Snow Depth Not available.
6:43 AM 5:11 PM
Waning Gibbous, 62% visible
SPECI KHRT 181513Z 00000KT 1SM BR OVC002 19/17 A3019 RMK $

Get Your Daily Forecast Email!

Thanks for signing up!

Be on the lookout for a verification email in your inbox.

You'll start receiving the daily forecast at 8 AM.

×

10-Day Weather Forecast

Almanac

Astronomy

Jan. 18, 2017 Rise Set
Actual Time
Civil Twilight
Nautical Twilight
Astronomical Twilight
Moon
Length of Visible Light
Length of Day
Tomorrow will be .
, % of the Moon is Illuminated

Today's Extremes

State Highs State Lows

Community

WunderPhotos

Upload Photos

1,962,540 photos uploaded!

WunderBlog® & News

Nearby

Air Quality

  Air Quality AQ Index Pollutant
Not available.

Snow Depth

Station Depth Elevation

Earthquake Activity

City Distance Mag. Time & Date
Minimum magnitude displayed is 2.5.

Coastal Water Temperatures

Place Temperature

Stations

Nearby Weather Stations

Station Location Temp. Windchill Dew Point Humidity Wind Precip. Elev Updated Type
                   

Watches & Warnings

Marine Fog Advisory
Issued: 9:41 AM CST Jan. 18, 2017 – National Weather Service

... Dense fog advisory now in effect until noon CST today...

* visibility... 1 mile or less.

Precautionary/preparedness actions...

A dense fog advisory means visibilities will frequently be
reduced to less than one mile. Inexperienced mariners...
especially those operating smaller vessels should avoid
navigating in these conditions.





941 am CST Wed Jan 18 2017

... Dense fog advisory now in effect until noon CST today...

* visibility... 1 mile or less.

Precautionary/preparedness actions...

A dense fog advisory means visibilities will frequently be
reduced to less than one mile. Inexperienced mariners...
especially those operating smaller vessels should avoid
navigating in these conditions.